sensor_id;sensor_type;location;lat;lon;timestamp;P1;P2;P0
67892;PMS7003;54688;52.376;16.744;2022-08-21T00:00:48;13;9;
67892;PMS7003;54688;52.376;16.744;2022-08-21T00:03:54;11;9;
67892;PMS7003;54688;52.376;16.744;2022-08-21T00:06:56;10;10;
67892;PMS7003;54688;52.376;16.744;2022-08-21T00:09:58;12;10;
67892;PMS7003;54688;52.376;16.744;2022-08-21T00:13:00;10;9;
67892;PMS7003;54688;52.376;16.744;2022-08-21T00:16:03;10;9;
67892;PMS7003;54688;52.376;16.744;2022-08-21T00:19:06;13;9;
67892;PMS7003;54688;52.376;16.744;2022-08-21T00:22:08;11;10;
67892;PMS7003;54688;52.376;16.744;2022-08-21T00:25:11;13;11;
67892;PMS7003;54688;52.376;16.744;2022-08-21T00:28:13;12;9;
67892;PMS7003;54688;52.376;16.744;2022-08-21T00:31:16;9;9;
67892;PMS7003;54688;52.376;16.744;2022-08-21T00:34:19;10;10;
67892;PMS7003;54688;52.376;16.744;2022-08-21T00:37:23;12;12;
67892;PMS7003;54688;52.376;16.744;2022-08-21T00:40:28;12;10;
67892;PMS7003;54688;52.376;16.744;2022-08-21T00:43:34;14;11;
67892;PMS7003;54688;52.376;16.744;2022-08-21T00:46:37;13;10;
67892;PMS7003;54688;52.376;16.744;2022-08-21T00:49:39;9;8;
67892;PMS7003;54688;52.376;16.744;2022-08-21T00:52:42;12;10;
67892;PMS7003;54688;52.376;16.744;2022-08-21T00:55:44;15;10;
67892;PMS7003;54688;52.376;16.744;2022-08-21T00:58:47;14;11;
67892;PMS7003;54688;52.376;16.744;2022-08-21T01:01:50;9;7;
67892;PMS7003;54688;52.376;16.744;2022-08-21T01:04:54;10;9;
67892;PMS7003;54688;52.376;16.744;2022-08-21T01:07:56;8;8;
67892;PMS7003;54688;52.376;16.744;2022-08-21T01:11:00;12;10;
67892;PMS7003;54688;52.376;16.744;2022-08-21T01:14:03;13;10;
67892;PMS7003;54688;52.376;16.744;2022-08-21T01:17:05;10;10;
67892;PMS7003;54688;52.376;16.744;2022-08-21T01:20:11;10;9;
67892;PMS7003;54688;52.376;16.744;2022-08-21T01:23:13;12;10;
67892;PMS7003;54688;52.376;16.744;2022-08-21T01:26:18;12;10;
67892;PMS7003;54688;52.376;16.744;2022-08-21T01:29:29;10;10;
67892;PMS7003;54688;52.376;16.744;2022-08-21T01:32:31;11;11;
67892;PMS7003;54688;52.376;16.744;2022-08-21T01:35:34;12;10;
67892;PMS7003;54688;52.376;16.744;2022-08-21T01:38:37;12;11;
67892;PMS7003;54688;52.376;16.744;2022-08-21T01:41:38;12;10;
67892;PMS7003;54688;52.376;16.744;2022-08-21T01:44:41;12;12;
67892;PMS7003;54688;52.376;16.744;2022-08-21T01:47:43;12;10;
67892;PMS7003;54688;52.376;16.744;2022-08-21T01:50:46;11;10;
67892;PMS7003;54688;52.376;16.744;2022-08-21T01:53:48;15;13;
67892;PMS7003;54688;52.376;16.744;2022-08-21T01:56:52;13;10;
67892;PMS7003;54688;52.376;16.744;2022-08-21T01:59:54;11;10;
67892;PMS7003;54688;52.376;16.744;2022-08-21T02:02:56;11;8;
67892;PMS7003;54688;52.376;16.744;2022-08-21T02:06:00;9;9;
67892;PMS7003;54688;52.376;16.744;2022-08-21T02:09:02;9;9;
67892;PMS7003;54688;52.376;16.744;2022-08-21T02:12:05;9;9;
67892;PMS7003;54688;52.376;16.744;2022-08-21T02:15:08;13;11;
67892;PMS7003;54688;52.376;16.744;2022-08-21T02:18:10;13;10;
67892;PMS7003;54688;52.376;16.744;2022-08-21T02:21:12;10;10;
67892;PMS7003;54688;52.376;16.744;2022-08-21T02:24:14;10;10;
67892;PMS7003;54688;52.376;16.744;2022-08-21T02:27:16;9;9;
67892;PMS7003;54688;52.376;16.744;2022-08-21T02:30:20;14;12;
67892;PMS7003;54688;52.376;16.744;2022-08-21T02:33:25;10;10;
67892;PMS7003;54688;52.376;16.744;2022-08-21T02:36:28;11;10;
67892;PMS7003;54688;52.376;16.744;2022-08-21T02:39:30;11;9;
67892;PMS7003;54688;52.376;16.744;2022-08-21T02:42:32;9;9;
67892;PMS7003;54688;52.376;16.744;2022-08-21T02:45:36;12;9;
67892;PMS7003;54688;52.376;16.744;2022-08-21T02:48:39;12;9;
67892;PMS7003;54688;52.376;16.744;2022-08-21T02:51:41;8;8;
67892;PMS7003;54688;52.376;16.744;2022-08-21T02:54:43;14;10;
67892;PMS7003;54688;52.376;16.744;2022-08-21T02:57:45;12;9;
67892;PMS7003;54688;52.376;16.744;2022-08-21T03:00:48;8;8;
67892;PMS7003;54688;52.376;16.744;2022-08-21T03:03:50;7;6;
67892;PMS7003;54688;52.376;16.744;2022-08-21T03:06:53;12;12;
67892;PMS7003;54688;52.376;16.744;2022-08-21T03:09:56;9;9;
67892;PMS7003;54688;52.376;16.744;2022-08-21T03:12:58;12;11;
67892;PMS7003;54688;52.376;16.744;2022-08-21T03:16:00;8;8;
67892;PMS7003;54688;52.376;16.744;2022-08-21T03:19:02;8;7;
67892;PMS7003;54688;52.376;16.744;2022-08-21T03:22:05;8;7;
67892;PMS7003;54688;52.376;16.744;2022-08-21T03:28:09;13;8;
67892;PMS7003;54688;52.376;16.744;2022-08-21T03:31:12;11;7;
67892;PMS7003;54688;52.376;16.744;2022-08-21T03:34:13;9;7;
67892;PMS7003;54688;52.376;16.744;2022-08-21T03:37:16;9;9;
67892;PMS7003;54688;52.376;16.744;2022-08-21T03:40:18;10;8;
67892;PMS7003;54688;52.376;16.744;2022-08-21T03:43:20;9;7;
67892;PMS7003;54688;52.376;16.744;2022-08-21T03:46:23;6;6;
67892;PMS7003;54688;52.376;16.744;2022-08-21T03:49:25;10;8;
67892;PMS7003;54688;52.376;16.744;2022-08-21T03:52:27;8;6;
67892;PMS7003;54688;52.376;16.744;2022-08-21T03:55:29;8;8;
67892;PMS7003;54688;52.376;16.744;2022-08-21T03:58:31;7;7;
67892;PMS7003;54688;52.376;16.744;2022-08-21T04:01:34;8;8;
67892;PMS7003;54688;52.376;16.744;2022-08-21T04:04:36;8;8;
67892;PMS7003;54688;52.376;16.744;2022-08-21T04:07:40;8;8;
67892;PMS7003;54688;52.376;16.744;2022-08-21T04:10:43;8;7;
67892;PMS7003;54688;52.376;16.744;2022-08-21T04:13:46;6;6;
67892;PMS7003;54688;52.376;16.744;2022-08-21T04:16:48;6;6;
67892;PMS7003;54688;52.376;16.744;2022-08-21T04:19:50;6;6;
67892;PMS7003;54688;52.376;16.744;2022-08-21T04:22:53;7;6;
67892;PMS7003;54688;52.376;16.744;2022-08-21T04:25:56;7;5;
67892;PMS7003;54688;52.376;16.744;2022-08-21T04:28:59;6;6;
67892;PMS7003;54688;52.376;16.744;2022-08-21T04:32:01;12;7;
67892;PMS7003;54688;52.376;16.744;2022-08-21T04:35:04;5;5;
67892;PMS7003;54688;52.376;16.744;2022-08-21T04:38:07;5;5;
67892;PMS7003;54688;52.376;16.744;2022-08-21T04:41:09;6;5;
67892;PMS7003;54688;52.376;16.744;2022-08-21T04:44:11;5;5;
67892;PMS7003;54688;52.376;16.744;2022-08-21T04:47:13;6;6;
67892;PMS7003;54688;52.376;16.744;2022-08-21T04:50:15;8;5;
67892;PMS7003;54688;52.376;16.744;2022-08-21T04:53:20;5;4;
67892;PMS7003;54688;52.376;16.744;2022-08-21T04:56:26;7;5;
67892;PMS7003;54688;52.376;16.744;2022-08-21T04:59:31;4;4;
67892;PMS7003;54688;52.376;16.744;2022-08-21T05:02:35;9;6;
67892;PMS7003;54688;52.376;16.744;2022-08-21T05:05:38;6;6;
67892;PMS7003;54688;52.376;16.744;2022-08-21T05:08:42;7;7;
67892;PMS7003;54688;52.376;16.744;2022-08-21T05:11:46;7;7;
67892;PMS7003;54688;52.376;16.744;2022-08-21T05:14:48;6;6;
67892;PMS7003;54688;52.376;16.744;2022-08-21T05:17:50;8;8;
67892;PMS7003;54688;52.376;16.744;2022-08-21T05:20:52;9;8;
67892;PMS7003;54688;52.376;16.744;2022-08-21T05:23:54;15;12;
67892;PMS7003;54688;52.376;16.744;2022-08-21T05:26:56;7;5;
67892;PMS7003;54688;52.376;16.744;2022-08-21T05:29:58;10;7;
67892;PMS7003;54688;52.376;16.744;2022-08-21T05:33:02;9;8;
67892;PMS7003;54688;52.376;16.744;2022-08-21T05:36:05;9;7;
67892;PMS7003;54688;52.376;16.744;2022-08-21T05:39:07;11;8;
67892;PMS7003;54688;52.376;16.744;2022-08-21T05:42:09;11;8;
67892;PMS7003;54688;52.376;16.744;2022-08-21T05:45:10;9;8;
67892;PMS7003;54688;52.376;16.744;2022-08-21T05:48:15;8;6;
67892;PMS7003;54688;52.376;16.744;2022-08-21T05:51:18;7;7;
67892;PMS7003;54688;52.376;16.744;2022-08-21T05:54:20;13;12;
67892;PMS7003;54688;52.376;16.744;2022-08-21T05:57:23;8;8;
67892;PMS7003;54688;52.376;16.744;2022-08-21T06:00:24;10;8;
67892;PMS7003;54688;52.376;16.744;2022-08-21T06:03:29;8;8;
67892;PMS7003;54688;52.376;16.744;2022-08-21T06:06:31;12;8;
67892;PMS7003;54688;52.376;16.744;2022-08-21T06:09:34;11;8;
67892;PMS7003;54688;52.376;16.744;2022-08-21T06:12:37;6;6;
67892;PMS7003;54688;52.376;16.744;2022-08-21T06:15:39;7;7;
67892;PMS7003;54688;52.376;16.744;2022-08-21T06:18:42;8;7;
67892;PMS7003;54688;52.376;16.744;2022-08-21T06:21:45;9;7;
67892;PMS7003;54688;52.376;16.744;2022-08-21T06:24:48;9;6;
67892;PMS7003;54688;52.376;16.744;2022-08-21T06:27:50;8;7;
67892;PMS7003;54688;52.376;16.744;2022-08-21T06:30:53;7;7;
67892;PMS7003;54688;52.376;16.744;2022-08-21T06:33:54;7;6;
67892;PMS7003;54688;52.376;16.744;2022-08-21T06:36:57;8;8;
67892;PMS7003;54688;52.376;16.744;2022-08-21T06:39:59;5;5;
67892;PMS7003;54688;52.376;16.744;2022-08-21T06:43:06;8;6;
67892;PMS7003;54688;52.376;16.744;2022-08-21T06:46:09;6;6;
67892;PMS7003;54688;52.376;16.744;2022-08-21T06:49:11;7;5;
67892;PMS7003;54688;52.376;16.744;2022-08-21T06:52:13;7;4;
67892;PMS7003;54688;52.376;16.744;2022-08-21T06:55:15;4;3;
67892;PMS7003;54688;52.376;16.744;2022-08-21T06:58:16;4;4;
67892;PMS7003;54688;52.376;16.744;2022-08-21T07:01:25;6;6;
67892;PMS7003;54688;52.376;16.744;2022-08-21T07:04:27;4;4;
67892;PMS7003;54688;52.376;16.744;2022-08-21T07:07:29;5;5;
67892;PMS7003;54688;52.376;16.744;2022-08-21T07:10:31;4;4;
67892;PMS7003;54688;52.376;16.744;2022-08-21T07:13:34;6;5;
67892;PMS7003;54688;52.376;16.744;2022-08-21T07:16:36;4;4;
67892;PMS7003;54688;52.376;16.744;2022-08-21T07:19:39;3;3;
67892;PMS7003;54688;52.376;16.744;2022-08-21T07:22:42;5;5;
67892;PMS7003;54688;52.376;16.744;2022-08-21T07:25:44;5;4;
67892;PMS7003;54688;52.376;16.744;2022-08-21T07:28:46;5;4;
67892;PMS7003;54688;52.376;16.744;2022-08-21T07:31:48;8;5;
67892;PMS7003;54688;52.376;16.744;2022-08-21T07:37:50;7;7;
67892;PMS7003;54688;52.376;16.744;2022-08-21T07:40:54;6;5;
67892;PMS7003;54688;52.376;16.744;2022-08-21T07:46:57;8;8;
67892;PMS7003;54688;52.376;16.744;2022-08-21T07:49:59;6;6;
67892;PMS7003;54688;52.376;16.744;2022-08-21T07:53:01;7;7;
67892;PMS7003;54688;52.376;16.744;2022-08-21T07:56:05;9;8;
67892;PMS7003;54688;52.376;16.744;2022-08-21T07:59:08;7;6;
67892;PMS7003;54688;52.376;16.744;2022-08-21T08:02:21;10;6;
67892;PMS7003;54688;52.376;16.744;2022-08-21T08:05:27;9;6;
67892;PMS7003;54688;52.376;16.744;2022-08-21T08:08:30;7;6;
67892;PMS7003;54688;52.376;16.744;2022-08-21T08:11:35;3;3;
67892;PMS7003;54688;52.376;16.744;2022-08-21T08:14:37;8;6;
67892;PMS7003;54688;52.376;16.744;2022-08-21T08:17:39;6;5;
67892;PMS7003;54688;52.376;16.744;2022-08-21T08:20:41;6;5;
67892;PMS7003;54688;52.376;16.744;2022-08-21T08:23:43;8;6;
67892;PMS7003;54688;52.376;16.744;2022-08-21T08:26:45;8;6;
67892;PMS7003;54688;52.376;16.744;2022-08-21T08:29:47;4;4;
67892;PMS7003;54688;52.376;16.744;2022-08-21T08:32:51;9;6;
67892;PMS7003;54688;52.376;16.744;2022-08-21T08:35:53;5;4;
67892;PMS7003;54688;52.376;16.744;2022-08-21T08:38:55;8;5;
67892;PMS7003;54688;52.376;16.744;2022-08-21T08:42:03;6;6;
67892;PMS7003;54688;52.376;16.744;2022-08-21T08:45:09;5;5;
67892;PMS7003;54688;52.376;16.744;2022-08-21T08:48:17;6;6;
67892;PMS7003;54688;52.376;16.744;2022-08-21T08:51:34;4;4;
67892;PMS7003;54688;52.376;16.744;2022-08-21T08:54:44;6;5;
67892;PMS7003;54688;52.376;16.744;2022-08-21T08:57:48;5;5;
67892;PMS7003;54688;52.376;16.744;2022-08-21T09:00:52;8;5;
67892;PMS7003;54688;52.376;16.744;2022-08-21T09:03:54;6;6;
67892;PMS7003;54688;52.376;16.744;2022-08-21T09:07:07;8;7;
67892;PMS7003;54688;52.376;16.744;2022-08-21T09:10:17;8;7;
67892;PMS7003;54688;52.376;16.744;2022-08-21T09:13:37;7;6;
67892;PMS7003;54688;52.376;16.744;2022-08-21T09:16:47;7;7;
67892;PMS7003;54688;52.376;16.744;2022-08-21T09:20:03;4;4;
67892;PMS7003;54688;52.376;16.744;2022-08-21T09:26:13;5;5;
67892;PMS7003;54688;52.376;16.744;2022-08-21T09:29:17;5;5;
67892;PMS7003;54688;52.376;16.744;2022-08-21T09:32:23;8;8;
67892;PMS7003;54688;52.376;16.744;2022-08-21T09:35:26;10;7;
67892;PMS7003;54688;52.376;16.744;2022-08-21T09:38:31;6;6;
67892;PMS7003;54688;52.376;16.744;2022-08-21T09:41:36;7;7;
67892;PMS7003;54688;52.376;16.744;2022-08-21T09:44:40;7;5;
67892;PMS7003;54688;52.376;16.744;2022-08-21T09:47:43;9;6;
67892;PMS7003;54688;52.376;16.744;2022-08-21T09:50:47;11;8;
67892;PMS7003;54688;52.376;16.744;2022-08-21T09:53:53;6;6;
67892;PMS7003;54688;52.376;16.744;2022-08-21T09:56:58;10;7;
67892;PMS7003;54688;52.376;16.744;2022-08-21T10:00:08;11;7;
67892;PMS7003;54688;52.376;16.744;2022-08-21T10:03:15;8;6;
67892;PMS7003;54688;52.376;16.744;2022-08-21T10:06:23;11;8;
67892;PMS7003;54688;52.376;16.744;2022-08-21T10:09:26;10;10;
67892;PMS7003;54688;52.376;16.744;2022-08-21T10:12:35;9;9;
67892;PMS7003;54688;52.376;16.744;2022-08-21T10:15:49;10;8;
67892;PMS7003;54688;52.376;16.744;2022-08-21T10:19:03;7;7;
67892;PMS7003;54688;52.376;16.744;2022-08-21T10:22:17;13;13;
67892;PMS7003;54688;52.376;16.744;2022-08-21T10:25:27;7;7;
67892;PMS7003;54688;52.376;16.744;2022-08-21T10:28:39;7;7;
67892;PMS7003;54688;52.376;16.744;2022-08-21T10:31:51;6;6;
67892;PMS7003;54688;52.376;16.744;2022-08-21T10:35:00;9;9;
67892;PMS7003;54688;52.376;16.744;2022-08-21T10:41:39;6;6;
67892;PMS7003;54688;52.376;16.744;2022-08-21T10:44:49;7;7;
67892;PMS7003;54688;52.376;16.744;2022-08-21T10:47:55;6;6;
67892;PMS7003;54688;52.376;16.744;2022-08-21T10:51:06;5;5;
67892;PMS7003;54688;52.376;16.744;2022-08-21T10:54:13;13;8;
67892;PMS7003;54688;52.376;16.744;2022-08-21T10:57:24;8;7;
67892;PMS7003;54688;52.376;16.744;2022-08-21T11:00:36;7;7;
67892;PMS7003;54688;52.376;16.744;2022-08-21T11:03:44;9;7;
67892;PMS7003;54688;52.376;16.744;2022-08-21T11:06:51;9;8;
67892;PMS7003;54688;52.376;16.744;2022-08-21T11:09:58;9;7;
67892;PMS7003;54688;52.376;16.744;2022-08-21T11:13:05;6;6;
67892;PMS7003;54688;52.376;16.744;2022-08-21T11:16:16;12;11;
67892;PMS7003;54688;52.376;16.744;2022-08-21T11:19:22;9;8;
67892;PMS7003;54688;52.376;16.744;2022-08-21T11:22:31;9;7;
67892;PMS7003;54688;52.376;16.744;2022-08-21T11:25:37;9;7;
67892;PMS7003;54688;52.376;16.744;2022-08-21T11:28:43;6;5;
67892;PMS7003;54688;52.376;16.744;2022-08-21T11:31:59;6;5;
67892;PMS7003;54688;52.376;16.744;2022-08-21T11:35:07;6;6;
67892;PMS7003;54688;52.376;16.744;2022-08-21T11:38:24;8;6;
67892;PMS7003;54688;52.376;16.744;2022-08-21T11:41:30;7;5;
67892;PMS7003;54688;52.376;16.744;2022-08-21T11:44:42;5;5;
67892;PMS7003;54688;52.376;16.744;2022-08-21T11:47:56;5;5;
67892;PMS7003;54688;52.376;16.744;2022-08-21T11:51:00;5;5;
67892;PMS7003;54688;52.376;16.744;2022-08-21T11:54:12;4;4;
67892;PMS7003;54688;52.376;16.744;2022-08-21T11:57:20;6;4;
67892;PMS7003;54688;52.376;16.744;2022-08-21T12:00:25;4;4;
67892;PMS7003;54688;52.376;16.744;2022-08-21T12:03:31;3;3;
67892;PMS7003;54688;52.376;16.744;2022-08-21T12:06:36;2;2;
67892;PMS7003;54688;52.376;16.744;2022-08-21T12:09:39;4;4;
67892;PMS7003;54688;52.376;16.744;2022-08-21T12:12:43;4;4;
67892;PMS7003;54688;52.376;16.744;2022-08-21T12:15:45;5;4;
67892;PMS7003;54688;52.376;16.744;2022-08-21T12:18:48;5;4;
67892;PMS7003;54688;52.376;16.744;2022-08-21T12:21:54;3;3;
67892;PMS7003;54688;52.376;16.744;2022-08-21T12:25:05;3;3;
67892;PMS7003;54688;52.376;16.744;2022-08-21T12:28:10;4;3;
67892;PMS7003;54688;52.376;16.744;2022-08-21T12:31:18;4;4;
67892;PMS7003;54688;52.376;16.744;2022-08-21T12:34:23;3;3;
67892;PMS7003;54688;52.376;16.744;2022-08-21T12:37:34;2;2;
67892;PMS7003;54688;52.376;16.744;2022-08-21T12:40:40;4;4;
67892;PMS7003;54688;52.376;16.744;2022-08-21T12:46:46;5;3;
67892;PMS7003;54688;52.376;16.744;2022-08-21T12:49:54;2;2;
67892;PMS7003;54688;52.376;16.744;2022-08-21T12:53:03;6;3;
67892;PMS7003;54688;52.376;16.744;2022-08-21T12:56:10;6;4;
67892;PMS7003;54688;52.376;16.744;2022-08-21T12:59:12;4;4;
67892;PMS7003;54688;52.376;16.744;2022-08-21T13:02:17;3;3;
67892;PMS7003;54688;52.376;16.744;2022-08-21T13:05:28;4;4;
67892;PMS7003;54688;52.376;16.744;2022-08-21T13:08:32;3;3;
67892;PMS7003;54688;52.376;16.744;2022-08-21T13:11:35;7;5;
67892;PMS7003;54688;52.376;16.744;2022-08-21T13:14:40;7;5;
67892;PMS7003;54688;52.376;16.744;2022-08-21T13:17:48;3;3;
67892;PMS7003;54688;52.376;16.744;2022-08-21T13:21:03;5;5;
67892;PMS7003;54688;52.376;16.744;2022-08-21T13:24:11;6;5;
67892;PMS7003;54688;52.376;16.744;2022-08-21T13:27:18;5;4;
67892;PMS7003;54688;52.376;16.744;2022-08-21T13:30:21;7;5;
67892;PMS7003;54688;52.376;16.744;2022-08-21T13:33:25;5;5;
67892;PMS7003;54688;52.376;16.744;2022-08-21T13:36:32;4;4;
67892;PMS7003;54688;52.376;16.744;2022-08-21T13:39:34;4;4;
67892;PMS7003;54688;52.376;16.744;2022-08-21T13:42:40;4;4;
67892;PMS7003;54688;52.376;16.744;2022-08-21T13:48:41;6;5;
67892;PMS7003;54688;52.376;16.744;2022-08-21T13:51:45;4;4;
67892;PMS7003;54688;52.376;16.744;2022-08-21T13:54:53;4;2;
67892;PMS7003;54688;52.376;16.744;2022-08-21T13:58:00;4;2;
67892;PMS7003;54688;52.376;16.744;2022-08-21T14:01:03;2;2;
67892;PMS7003;54688;52.376;16.744;2022-08-21T14:04:07;5;3;
67892;PMS7003;54688;52.376;16.744;2022-08-21T14:07:16;4;4;
67892;PMS7003;54688;52.376;16.744;2022-08-21T14:10:21;4;4;
67892;PMS7003;54688;52.376;16.744;2022-08-21T14:13:32;4;4;
67892;PMS7003;54688;52.376;16.744;2022-08-21T14:16:45;3;3;
67892;PMS7003;54688;52.376;16.744;2022-08-21T14:19:48;2;2;
67892;PMS7003;54688;52.376;16.744;2022-08-21T14:22:51;3;3;
67892;PMS7003;54688;52.376;16.744;2022-08-21T14:25:58;2;2;
67892;PMS7003;54688;52.376;16.744;2022-08-21T14:29:01;4;3;
67892;PMS7003;54688;52.376;16.744;2022-08-21T14:32:09;5;3;
67892;PMS7003;54688;52.376;16.744;2022-08-21T14:35:19;3;3;
67892;PMS7003;54688;52.376;16.744;2022-08-21T14:38:23;5;3;
67892;PMS7003;54688;52.376;16.744;2022-08-21T14:41:27;4;4;
67892;PMS7003;54688;52.376;16.744;2022-08-21T14:44:30;4;4;
67892;PMS7003;54688;52.376;16.744;2022-08-21T14:47:33;3;3;
67892;PMS7003;54688;52.376;16.744;2022-08-21T14:50:35;3;3;
67892;PMS7003;54688;52.376;16.744;2022-08-21T14:53:37;4;3;
67892;PMS7003;54688;52.376;16.744;2022-08-21T14:56:40;4;3;
67892;PMS7003;54688;52.376;16.744;2022-08-21T14:59:41;5;3;
67892;PMS7003;54688;52.376;16.744;2022-08-21T15:02:45;3;3;
67892;PMS7003;54688;52.376;16.744;2022-08-21T15:05:47;3;2;
67892;PMS7003;54688;52.376;16.744;2022-08-21T15:08:49;3;3;
67892;PMS7003;54688;52.376;16.744;2022-08-21T15:11:51;4;4;
67892;PMS7003;54688;52.376;16.744;2022-08-21T15:14:56;4;4;
67892;PMS7003;54688;52.376;16.744;2022-08-21T15:20:57;4;3;
67892;PMS7003;54688;52.376;16.744;2022-08-21T15:24:00;5;5;
67892;PMS7003;54688;52.376;16.744;2022-08-21T15:27:06;5;5;
67892;PMS7003;54688;52.376;16.744;2022-08-21T15:30:09;5;4;
67892;PMS7003;54688;52.376;16.744;2022-08-21T15:33:12;4;3;
67892;PMS7003;54688;52.376;16.744;2022-08-21T15:36:15;2;2;
67892;PMS7003;54688;52.376;16.744;2022-08-21T15:39:16;4;4;
67892;PMS7003;54688;52.376;16.744;2022-08-21T15:42:19;3;3;
67892;PMS7003;54688;52.376;16.744;2022-08-21T15:45:21;3;3;
67892;PMS7003;54688;52.376;16.744;2022-08-21T15:48:23;3;3;
67892;PMS7003;54688;52.376;16.744;2022-08-21T15:51:26;4;4;
67892;PMS7003;54688;52.376;16.744;2022-08-21T15:54:27;6;5;
67892;PMS7003;54688;52.376;16.744;2022-08-21T15:57:29;2;2;
67892;PMS7003;54688;52.376;16.744;2022-08-21T16:00:34;3;3;
67892;PMS7003;54688;52.376;16.744;2022-08-21T16:03:38;2;2;
67892;PMS7003;54688;52.376;16.744;2022-08-21T16:06:40;3;3;
67892;PMS7003;54688;52.376;16.744;2022-08-21T16:09:42;5;4;
67892;PMS7003;54688;52.376;16.744;2022-08-21T16:12:47;3;3;
67892;PMS7003;54688;52.376;16.744;2022-08-21T16:15:50;6;3;
67892;PMS7003;54688;52.376;16.744;2022-08-21T16:18:53;3;3;
67892;PMS7003;54688;52.376;16.744;2022-08-21T16:21:54;4;4;
67892;PMS7003;54688;52.376;16.744;2022-08-21T16:24:58;2;2;
67892;PMS7003;54688;52.376;16.744;2022-08-21T16:28:01;3;3;
67892;PMS7003;54688;52.376;16.744;2022-08-21T16:31:03;5;4;
67892;PMS7003;54688;52.376;16.744;2022-08-21T16:34:05;6;5;
67892;PMS7003;54688;52.376;16.744;2022-08-21T16:37:08;3;3;
67892;PMS7003;54688;52.376;16.744;2022-08-21T16:40:10;3;3;
67892;PMS7003;54688;52.376;16.744;2022-08-21T16:43:12;3;3;
67892;PMS7003;54688;52.376;16.744;2022-08-21T16:46:15;6;5;
67892;PMS7003;54688;52.376;16.744;2022-08-21T16:49:18;4;3;
67892;PMS7003;54688;52.376;16.744;2022-08-21T16:55:20;3;3;
67892;PMS7003;54688;52.376;16.744;2022-08-21T16:58:26;2;2;
67892;PMS7003;54688;52.376;16.744;2022-08-21T17:01:31;4;4;
67892;PMS7003;54688;52.376;16.744;2022-08-21T17:04:34;5;5;
67892;PMS7003;54688;52.376;16.744;2022-08-21T17:07:37;4;4;
67892;PMS7003;54688;52.376;16.744;2022-08-21T17:10:42;5;5;
67892;PMS7003;54688;52.376;16.744;2022-08-21T17:13:45;6;6;
67892;PMS7003;54688;52.376;16.744;2022-08-21T17:16:50;6;4;
67892;PMS7003;54688;52.376;16.744;2022-08-21T17:19:53;4;3;
67892;PMS7003;54688;52.376;16.744;2022-08-21T17:22:55;3;3;
67892;PMS7003;54688;52.376;16.744;2022-08-21T17:25:58;3;2;
67892;PMS7003;54688;52.376;16.744;2022-08-21T17:29:01;3;3;
67892;PMS7003;54688;52.376;16.744;2022-08-21T17:32:07;5;3;
67892;PMS7003;54688;52.376;16.744;2022-08-21T17:35:11;6;3;
67892;PMS7003;54688;52.376;16.744;2022-08-21T17:38:13;9;5;
67892;PMS7003;54688;52.376;16.744;2022-08-21T17:41:16;4;2;
67892;PMS7003;54688;52.376;16.744;2022-08-21T17:44:19;3;3;
67892;PMS7003;54688;52.376;16.744;2022-08-21T17:47:22;5;5;
67892;PMS7003;54688;52.376;16.744;2022-08-21T17:50:24;3;3;
67892;PMS7003;54688;52.376;16.744;2022-08-21T17:53:26;5;4;
67892;PMS7003;54688;52.376;16.744;2022-08-21T17:56:30;4;4;
67892;PMS7003;54688;52.376;16.744;2022-08-21T17:59:33;5;3;
67892;PMS7003;54688;52.376;16.744;2022-08-21T18:02:36;8;4;
67892;PMS7003;54688;52.376;16.744;2022-08-21T18:05:38;4;3;
67892;PMS7003;54688;52.376;16.744;2022-08-21T18:08:40;4;4;
67892;PMS7003;54688;52.376;16.744;2022-08-21T18:11:42;2;2;
67892;PMS7003;54688;52.376;16.744;2022-08-21T18:14:45;5;5;
67892;PMS7003;54688;52.376;16.744;2022-08-21T18:17:49;6;5;
67892;PMS7003;54688;52.376;16.744;2022-08-21T18:20:52;3;3;
67892;PMS7003;54688;52.376;16.744;2022-08-21T18:23:54;4;4;
67892;PMS7003;54688;52.376;16.744;2022-08-21T18:26:57;3;3;
67892;PMS7003;54688;52.376;16.744;2022-08-21T18:29:59;6;5;
67892;PMS7003;54688;52.376;16.744;2022-08-21T18:33:02;5;4;
67892;PMS7003;54688;52.376;16.744;2022-08-21T18:36:05;6;4;
67892;PMS7003;54688;52.376;16.744;2022-08-21T18:39:07;4;4;
67892;PMS7003;54688;52.376;16.744;2022-08-21T18:42:11;6;3;
67892;PMS7003;54688;52.376;16.744;2022-08-21T18:45:15;4;4;
67892;PMS7003;54688;52.376;16.744;2022-08-21T18:48:18;7;5;
67892;PMS7003;54688;52.376;16.744;2022-08-21T18:51:20;6;4;
67892;PMS7003;54688;52.376;16.744;2022-08-21T18:57:20;5;3;
67892;PMS7003;54688;52.376;16.744;2022-08-21T19:00:26;5;3;
67892;PMS7003;54688;52.376;16.744;2022-08-21T19:03:28;3;3;
67892;PMS7003;54688;52.376;16.744;2022-08-21T19:06:30;2;2;
67892;PMS7003;54688;52.376;16.744;2022-08-21T19:09:31;8;3;
67892;PMS7003;54688;52.376;16.744;2022-08-21T19:12:35;3;3;
67892;PMS7003;54688;52.376;16.744;2022-08-21T19:15:40;4;4;
67892;PMS7003;54688;52.376;16.744;2022-08-21T19:18:43;5;3;
67892;PMS7003;54688;52.376;16.744;2022-08-21T19:21:45;6;4;
67892;PMS7003;54688;52.376;16.744;2022-08-21T19:27:47;6;4;
67892;PMS7003;54688;52.376;16.744;2022-08-21T19:30:54;6;4;
67892;PMS7003;54688;52.376;16.744;2022-08-21T19:33:58;3;2;
67892;PMS7003;54688;52.376;16.744;2022-08-21T19:37:02;4;4;
67892;PMS7003;54688;52.376;16.744;2022-08-21T19:40:05;8;4;
67892;PMS7003;54688;52.376;16.744;2022-08-21T19:43:08;5;3;
67892;PMS7003;54688;52.376;16.744;2022-08-21T19:46:11;4;4;
67892;PMS7003;54688;52.376;16.744;2022-08-21T19:49:14;5;4;
67892;PMS7003;54688;52.376;16.744;2022-08-21T19:52:17;4;3;
67892;PMS7003;54688;52.376;16.744;2022-08-21T19:55:19;4;4;
67892;PMS7003;54688;52.376;16.744;2022-08-21T19:58:27;3;3;
67892;PMS7003;54688;52.376;16.744;2022-08-21T20:01:33;3;3;
67892;PMS7003;54688;52.376;16.744;2022-08-21T20:04:35;6;6;
67892;PMS7003;54688;52.376;16.744;2022-08-21T20:07:37;2;2;
67892;PMS7003;54688;52.376;16.744;2022-08-21T20:10:39;6;5;
67892;PMS7003;54688;52.376;16.744;2022-08-21T20:13:43;5;4;
67892;PMS7003;54688;52.376;16.744;2022-08-21T20:16:48;7;4;
67892;PMS7003;54688;52.376;16.744;2022-08-21T20:19:51;2;2;
67892;PMS7003;54688;52.376;16.744;2022-08-21T20:22:53;4;4;
67892;PMS7003;54688;52.376;16.744;2022-08-21T20:25:55;6;3;
67892;PMS7003;54688;52.376;16.744;2022-08-21T20:28:58;3;3;
67892;PMS7003;54688;52.376;16.744;2022-08-21T20:32:02;3;3;
67892;PMS7003;54688;52.376;16.744;2022-08-21T20:35:05;3;3;
67892;PMS7003;54688;52.376;16.744;2022-08-21T20:38:07;5;4;
67892;PMS7003;54688;52.376;16.744;2022-08-21T20:41:08;3;3;
67892;PMS7003;54688;52.376;16.744;2022-08-21T20:44:12;4;4;
67892;PMS7003;54688;52.376;16.744;2022-08-21T20:47:14;5;4;
67892;PMS7003;54688;52.376;16.744;2022-08-21T20:50:20;4;4;
67892;PMS7003;54688;52.376;16.744;2022-08-21T20:56:32;3;3;
67892;PMS7003;54688;52.376;16.744;2022-08-21T20:59:41;3;3;
67892;PMS7003;54688;52.376;16.744;2022-08-21T21:02:49;5;4;
67892;PMS7003;54688;52.376;16.744;2022-08-21T21:05:54;7;5;
67892;PMS7003;54688;52.376;16.744;2022-08-21T21:09:03;4;4;
67892;PMS7003;54688;52.376;16.744;2022-08-21T21:12:11;5;3;